createdAt,value
2022-10-02T00:00:36.182Z,14.94
2022-10-02T00:05:45.792Z,14.82
2022-10-02T00:10:51.956Z,14.78
2022-10-02T00:15:54.970Z,14.73
2022-10-02T00:21:06.161Z,14.60
2022-10-02T00:26:26.580Z,14.60
2022-10-02T00:31:52.939Z,14.63
2022-10-02T00:37:08.403Z,14.76
2022-10-02T00:42:42.091Z,14.80
2022-10-02T00:47:50.431Z,14.83
2022-10-02T00:53:04.858Z,14.80
2022-10-02T00:58:40.952Z,14.86
2022-10-02T01:03:47.307Z,14.90
2022-10-02T01:08:48.767Z,14.93
2022-10-02T01:13:51.251Z,15.01
2022-10-02T01:18:52.971Z,15.00
2022-10-02T01:24:02.161Z,15.05
2022-10-02T01:29:04.613Z,15.14
2022-10-02T01:34:06.702Z,15.15
2022-10-02T01:39:08.179Z,15.09
2022-10-02T01:44:11.067Z,14.96
2022-10-02T01:49:39.478Z,15.04
2022-10-02T01:54:46.331Z,15.10
2022-10-02T02:00:05.218Z,15.03
2022-10-02T02:05:17.788Z,15.03
2022-10-02T02:10:26.489Z,15.00
2022-10-02T02:15:54.714Z,15.02
2022-10-02T02:21:01.323Z,15.03
2022-10-02T02:26:08.624Z,15.09
2022-10-02T02:31:12.674Z,15.00
2022-10-02T02:36:19.205Z,15.02
2022-10-02T02:41:26.353Z,15.05
2022-10-02T02:46:34.591Z,15.12
2022-10-02T02:51:42.615Z,15.19
2022-10-02T02:56:46.780Z,15.18
2022-10-02T03:01:48.212Z,15.24
2022-10-02T03:06:55.144Z,15.21
2022-10-02T03:12:14.853Z,15.15
2022-10-02T03:17:35.915Z,15.19
2022-10-02T03:22:50.707Z,15.25
2022-10-02T03:28:14.577Z,15.25
2022-10-02T03:33:17.431Z,15.25
2022-10-02T03:38:21.154Z,15.22
2022-10-02T03:43:24.324Z,15.15
2022-10-02T03:48:25.703Z,15.19
2022-10-02T03:53:31.263Z,15.18
2022-10-02T03:58:34.064Z,15.25
2022-10-02T04:03:39.977Z,15.26
2022-10-02T04:08:50.940Z,15.25
2022-10-02T04:14:20.734Z,15.18
2022-10-02T04:19:47.323Z,15.29
2022-10-02T04:24:53.411Z,15.28
2022-10-02T04:30:14.659Z,15.27
2022-10-02T04:35:33.626Z,15.30
2022-10-02T04:40:51.483Z,15.38
2022-10-02T04:46:02.061Z,15.38
2022-10-02T04:51:27.298Z,15.40
2022-10-02T04:57:06.463Z,15.45
2022-10-02T05:02:28.145Z,15.55
2022-10-02T05:08:08.358Z,15.51
2022-10-02T05:13:37.357Z,15.58
2022-10-02T05:18:57.132Z,15.46
2022-10-02T05:24:40.051Z,15.46
2022-10-02T05:30:05.759Z,15.47
2022-10-02T05:35:34.632Z,15.46
2022-10-02T05:41:08.136Z,15.50
2022-10-02T05:46:25.723Z,15.51
2022-10-02T05:51:40.275Z,15.49
2022-10-02T05:56:51.387Z,15.52
2022-10-02T06:01:57.296Z,15.45
2022-10-02T06:07:15.417Z,15.28
2022-10-02T06:12:30.558Z,15.34
2022-10-02T06:17:45.726Z,15.35
2022-10-02T06:22:54.304Z,15.29
2022-10-02T06:28:02.812Z,15.26
2022-10-02T06:33:23.352Z,15.32
2022-10-02T06:39:01.150Z,15.27
2022-10-02T06:44:33.133Z,15.31
2022-10-02T06:50:03.197Z,15.35
2022-10-02T06:55:31.946Z,15.34
2022-10-02T07:00:45.695Z,15.36
2022-10-02T07:06:08.195Z,15.34
2022-10-02T07:11:21.482Z,15.29
2022-10-02T07:16:41.882Z,15.25
2022-10-02T07:22:00.424Z,15.32
2022-10-02T07:27:19.676Z,15.32
2022-10-02T07:32:42.560Z,15.36
2022-10-02T07:38:15.103Z,15.31
2022-10-02T07:43:24.178Z,15.36
2022-10-02T07:48:40.556Z,15.37
2022-10-02T07:53:51.696Z,15.38
2022-10-02T07:59:00.068Z,15.34
2022-10-02T08:04:05.933Z,15.39
2022-10-02T08:09:24.322Z,15.44
2022-10-02T08:14:41.256Z,15.47
2022-10-02T08:19:49.696Z,15.53
2022-10-02T08:24:57.515Z,15.57
2022-10-02T08:30:03.898Z,15.61
2022-10-02T08:35:12.523Z,15.70
2022-10-02T08:40:35.445Z,15.69
2022-10-02T08:46:02.347Z,15.67
2022-10-02T08:51:21.400Z,15.80
2022-10-02T08:56:48.322Z,15.81
2022-10-02T09:02:41.471Z,15.84
2022-10-02T09:08:07.913Z,15.88
2022-10-02T09:13:33.615Z,15.88
2022-10-02T09:18:51.148Z,15.86
2022-10-02T09:24:20.886Z,15.80
2022-10-02T09:29:55.326Z,15.91
2022-10-02T09:35:09.064Z,15.90
2022-10-02T09:41:04.351Z,15.96
2022-10-02T09:46:46.683Z,16.01
2022-10-02T09:52:10.642Z,16.00
2022-10-02T09:57:51.526Z,16.05
2022-10-02T10:03:22.619Z,16.13
2022-10-02T10:08:54.296Z,16.18
2022-10-02T10:14:29.161Z,16.30
2022-10-02T10:19:55.502Z,16.37
2022-10-02T10:25:28.092Z,16.49
2022-10-02T10:31:03.748Z,16.58
2022-10-02T10:36:46.618Z,16.68
2022-10-02T10:42:50.178Z,16.61
2022-10-02T10:48:25.320Z,16.68
2022-10-02T10:53:46.922Z,16.77
2022-10-02T10:59:24.401Z,16.75
2022-10-02T11:04:41.759Z,16.63
2022-10-02T11:09:55.706Z,16.65
2022-10-02T11:15:02.763Z,16.75
2022-10-02T11:20:23.000Z,16.77
2022-10-02T11:26:06.100Z,16.82
2022-10-02T11:31:32.940Z,16.80
2022-10-02T11:36:42.618Z,16.96
2022-10-02T11:42:05.778Z,16.83
2022-10-02T11:47:31.724Z,16.72
2022-10-02T11:52:57.246Z,16.73
2022-10-02T11:58:19.562Z,16.82
2022-10-02T12:03:36.575Z,16.96
2022-10-02T12:09:00.355Z,16.87
2022-10-02T12:14:20.402Z,16.94
2022-10-02T12:19:39.615Z,16.98
2022-10-02T12:25:27.833Z,17.01
2022-10-02T12:30:43.843Z,17.14
2022-10-02T12:35:45.145Z,17.40
2022-10-02T12:40:46.480Z,17.47
2022-10-02T12:45:50.892Z,17.35
2022-10-02T12:51:28.942Z,17.31
2022-10-02T12:56:42.391Z,17.34
2022-10-02T13:02:17.198Z,17.25
2022-10-02T13:07:33.666Z,17.43
2022-10-02T13:12:40.919Z,17.48
2022-10-02T13:17:58.729Z,17.67
2022-10-02T13:23:07.507Z,17.77
2022-10-02T13:28:27.681Z,17.71
2022-10-02T13:33:41.028Z,17.71
2022-10-02T13:39:00.225Z,17.60
2022-10-02T13:44:12.336Z,17.52
2022-10-02T13:49:54.159Z,17.63
2022-10-02T13:55:37.205Z,17.73
2022-10-02T14:00:46.306Z,17.88
2022-10-02T14:06:00.683Z,17.95
2022-10-02T14:11:43.367Z,18.02
2022-10-02T14:17:32.037Z,17.95
2022-10-02T14:23:03.101Z,17.91
2022-10-02T14:28:12.904Z,17.65
2022-10-02T14:33:43.895Z,17.60
2022-10-02T14:38:53.042Z,17.73
2022-10-02T14:44:21.030Z,17.70
2022-10-02T14:49:43.436Z,17.80
2022-10-02T14:55:18.792Z,17.81
2022-10-02T15:00:22.032Z,17.74
2022-10-02T15:05:50.813Z,17.66
2022-10-02T15:10:52.752Z,17.54
2022-10-02T15:16:29.165Z,17.49
2022-10-02T15:21:40.458Z,17.54
2022-10-02T15:27:15.512Z,17.55
2022-10-02T15:32:20.022Z,17.50
2022-10-02T15:37:43.342Z,17.32
2022-10-02T15:42:57.504Z,17.25
2022-10-02T15:48:14.772Z,17.26
2022-10-02T15:53:36.723Z,17.31
2022-10-02T15:59:09.991Z,17.28
2022-10-02T16:04:37.872Z,17.20
2022-10-02T16:09:48.002Z,17.14
2022-10-02T16:15:11.256Z,17.04
2022-10-02T16:20:27.013Z,17.00
2022-10-02T16:26:06.366Z,16.98
2022-10-02T16:31:31.784Z,17.04
2022-10-02T16:36:42.056Z,17.13
2022-10-02T16:42:01.934Z,17.02
2022-10-02T16:47:18.072Z,17.04
2022-10-02T16:52:29.586Z,17.03
2022-10-02T16:57:39.823Z,16.92
2022-10-02T17:02:51.687Z,16.82
2022-10-02T17:08:01.872Z,16.70
2022-10-02T17:13:09.461Z,16.66
2022-10-02T17:18:24.049Z,16.54
2022-10-02T17:23:33.904Z,16.50
2022-10-02T17:28:53.442Z,16.36
2022-10-02T17:33:58.038Z,16.19
2022-10-02T17:39:04.033Z,16.16
2022-10-02T17:44:23.383Z,16.06
2022-10-02T17:49:58.845Z,15.96
2022-10-02T17:55:49.852Z,15.82
2022-10-02T18:01:06.110Z,15.63
2022-10-02T18:06:19.402Z,15.37
2022-10-02T18:11:42.491Z,15.30
2022-10-02T18:16:52.895Z,15.24
2022-10-02T18:22:05.258Z,15.18
2022-10-02T18:27:46.971Z,15.06
2022-10-02T18:33:25.162Z,15.09
2022-10-02T18:38:41.790Z,15.14
2022-10-02T18:43:57.161Z,15.09
2022-10-02T18:49:10.511Z,15.02
2022-10-02T18:54:36.735Z,14.95
2022-10-02T19:00:07.240Z,14.90
2022-10-02T19:05:36.844Z,14.87
2022-10-02T19:10:42.821Z,14.91
2022-10-02T19:15:46.288Z,14.94
2022-10-02T19:21:13.771Z,15.02
2022-10-02T19:26:27.878Z,15.07
2022-10-02T19:31:31.318Z,15.09
2022-10-02T19:36:41.777Z,15.05
2022-10-02T19:41:44.398Z,15.04
2022-10-02T19:46:52.975Z,14.98
2022-10-02T19:51:54.903Z,14.97
2022-10-02T19:57:07.172Z,15.02
2022-10-02T20:02:21.750Z,15.08
2022-10-02T20:07:26.619Z,15.25
2022-10-02T20:12:36.022Z,15.46
2022-10-02T20:17:38.020Z,15.61
2022-10-02T20:22:52.936Z,15.70
2022-10-02T20:28:00.435Z,15.72
2022-10-02T20:33:11.296Z,15.72
2022-10-02T20:38:39.092Z,15.76
2022-10-02T20:43:46.607Z,15.74
2022-10-02T20:49:15.721Z,15.61
2022-10-02T20:54:28.559Z,15.54
2022-10-02T21:00:08.105Z,15.56
2022-10-02T21:05:34.486Z,15.52
2022-10-02T21:10:54.706Z,15.41
2022-10-02T21:16:17.806Z,15.34
2022-10-02T21:21:37.713Z,15.21
2022-10-02T21:27:03.953Z,15.09
2022-10-02T21:32:28.731Z,14.94
2022-10-02T21:37:50.181Z,14.77
2022-10-02T21:43:04.892Z,14.74
2022-10-02T21:48:40.200Z,14.67
2022-10-02T21:54:19.407Z,14.52
2022-10-02T21:59:41.475Z,14.48
2022-10-02T22:04:55.226Z,14.46
2022-10-02T22:10:12.766Z,14.42
2022-10-02T22:15:21.858Z,14.35
2022-10-02T22:20:51.456Z,14.34
2022-10-02T22:26:12.459Z,14.28
2022-10-02T22:31:43.340Z,14.16
2022-10-02T22:37:03.668Z,14.09
2022-10-02T22:42:12.691Z,13.96
2022-10-02T22:47:26.989Z,13.84
2022-10-02T22:52:31.946Z,13.71
2022-10-02T22:57:37.853Z,13.50
2022-10-02T23:03:01.862Z,13.50
2022-10-02T23:08:46.120Z,13.44
2022-10-02T23:13:56.946Z,13.43
2022-10-02T23:19:08.966Z,13.52
2022-10-02T23:24:36.739Z,13.48
2022-10-02T23:29:47.048Z,13.65
2022-10-02T23:35:01.090Z,13.72
2022-10-02T23:40:05.206Z,13.76
2022-10-02T23:45:21.154Z,13.86
2022-10-02T23:50:39.297Z,14.02
2022-10-02T23:55:55.339Z,14.14
